Swift Ace — C6XB8 — position and weather

sailwx.info

Track history (hours):
 
Tides and Currents Weather Stations Pressure Air Temp Water Temp Dewpoint Dewpoint Depression Visibility Wind Speed Wind Dir Waves Ship Positions

Swift Ace

Last reported at 2017-Dec-23 15:50 UTC. Time now 2018-Jan-20 10:46 UTC.
Position N 01°24' E 103°15'.
Warning: this ship's position is 27 days out of date.

Length 200 m; draft 8.5 m.

Type: Ship. MMSI: 311004900.

Date/timePositionNaut miles runAvg speedWind from/ knotsBaromVisibWave heightAir tempDewpointWater temp
2017-Dec-23 15:50N 01°24' E 103°15'618.3
2017-Dec-23 15:29N 01°19' E 103°20'918.4
2017-Dec-23 14:59N 01°14' E 103°27'816.2
2017-Dec-23 14:30N 01°12' E 103°35'5 8.8
2017-Dec-23 13:59N 01°12' E 103°40'3 6.6
2017-Dec-23 13:30N 01°14' E 103°42'4 7.9
2017-Dec-23 13:01N 01°17' E 103°45'1 1.0
2017-Dec-23 12:26N 01°17' E 103°45'0 0.0
2017-Dec-23 11:50N 01°17' E 103°45'0 0.0
2017-Dec-23 11:23N 01°17' E 103°45'0 0.0
2017-Dec-23 10:59N 01°17' E 103°45'0 0.0
2017-Dec-23 10:29N 01°17' E 103°45'0 0.0
2017-Dec-23 09:56N 01°17' E 103°45'0 0.0
2017-Dec-23 09:29N 01°17' E 103°45'0 0.0
2017-Dec-23 08:59N 01°17' E 103°45'0 0.0
2017-Dec-23 08:29N 01°17' E 103°45'0 0.0
2017-Dec-23 07:59N 01°17' E 103°45'0 0.0
2017-Dec-23 07:26N 01°17' E 103°45'0 0.0
2017-Dec-23 06:56N 01°17' E 103°45'0 0.0
2017-Dec-23 06:29N 01°17' E 103°45'0 0.0
2017-Dec-23 05:59N 01°17' E 103°45'0 0.0
2017-Dec-23 05:29N 01°17' E 103°45'0 0.0
2017-Dec-23 04:59N 01°17' E 103°45'0 0.0
2017-Dec-23 04:29N 01°17' E 103°45'0 0.0
2017-Dec-23 03:59N 01°17' E 103°45'0 0.0
2017-Dec-23 03:29N 01°17' E 103°45'0 0.0
2017-Dec-23 02:59N 01°17' E 103°45'0 0.0
2017-Dec-23 02:29N 01°17' E 103°45'0 0.0
2017-Dec-23 02:01N 01°17' E 103°45'1 1.4
2017-Dec-23 01:30N 01°17' E 103°45'3 6.9
2017-Dec-23 01:01N 01°14' E 103°47'510.0
2017-Dec-23 00:30N 01°13' E 103°52'2 3.1
2017-Dec-22 23:49N 01°15' E 103°53'0 0.0
2017-Dec-22 23:19N 01°15' E 103°53'0 0.0
2017-Dec-22 22:19N 01°15' E 103°53'0 0.0
2017-Dec-22 21:46N 01°15' E 103°53'0 0.0
2017-Dec-22 20:28N 01°15' E 103°53'0 0.0
2017-Dec-22 19:49N 01°15' E 103°53'0 0.0
2017-Dec-22 18:55N 01°15' E 103°53'0 0.0
2017-Dec-22 18:28N 01°15' E 103°53'0 0.0
2017-Dec-22 17:58N 01°15' E 103°53'0 0.0
2017-Dec-22 17:22N 01°15' E 103°53'0 0.0
2017-Dec-22 16:55N 01°15' E 103°53'0 0.0
2017-Dec-22 16:28N 01°15' E 103°53'0 0.0
2017-Dec-22 15:49N 01°15' E 103°53'0 0.0
2017-Dec-22 15:28N 01°15' E 103°53'0 0.0
2017-Dec-22 14:49N 01°15' E 103°53'0 0.0
2017-Dec-22 14:28N 01°15' E 103°53'0 0.0
2017-Dec-22 13:43N 01°15' E 103°53'0 0.1
2017-Dec-22 13:28N 01°15' E 103°53'0 0.2
2017-Dec-22 12:58N 01°15' E 103°53'0 0.0
2017-Dec-22 12:19N 01°15' E 103°53'0 0.0
2017-Dec-22 11:52N 01°15' E 103°53'0 0.0
2017-Dec-22 11:25N 01°15' E 103°53'0 0.1
2017-Dec-22 10:55N 01°15' E 103°53'0 1.1
2017-Dec-22 10:30N 01°15' E 103°54'2 3.7
2017-Dec-22 09:59N 01°14' E 103°55'3 5.4
2017-Dec-22 09:29N 01°15' E 103°58'612.1
2017-Dec-22 08:58N 01°16' E 104°04'  
2017-Dec-15 14:28N 32°59' E 132°09'715.7
2017-Dec-15 14:00N 33°06' E 132°06'815.5
2017-Dec-15 13:31N 33°13' E 132°02'612.0
2017-Dec-15 13:00N 33°18' E 131°59'816.2
2017-Dec-15 12:30N 33°25' E 131°55'918.1
2017-Dec-15 12:00N 33°33' E 131°50'917.9
2017-Dec-15 11:30N 33°41' E 131°45'816.0
2017-Dec-15 11:00N 33°46' E 131°37'917.3
2017-Dec-15 10:30N 33°48' E 131°27'817.0
2017-Dec-15 10:00N 33°49' E 131°17'815.5
2017-Dec-15 09:30N 33°50' E 131°08'510.8
2017-Dec-15 09:00N 33°48' E 131°01'2 3.3
2017-Dec-15 08:29N 33°47' E 131°00'0 0.0
2017-Dec-15 07:56N 33°47' E 131°00'0 0.0
2017-Dec-15 07:26N 33°47' E 131°00'0 0.0
2017-Dec-15 06:59N 33°47' E 131°00'0 0.0
2017-Dec-15 06:26N 33°47' E 131°00'0 0.0
2017-Dec-15 05:56N 33°47' E 131°00'0 0.0
2017-Dec-15 05:26N 33°47' E 131°00'0 0.0
2017-Dec-15 04:56N 33°47' E 131°00'0 0.0
2017-Dec-15 04:26N 33°47' E 131°00'0 0.0
2017-Dec-15 03:56N 33°47' E 131°00'0 0.0
2017-Dec-15 02:26N 33°47' E 131°00'0 0.0
2017-Dec-15 00:56N 33°47' E 131°00'0 0.0
2017-Dec-15 00:26N 33°47' E 131°00'40 6.8
2017-Dec-14 18:30N 33°35' E 131°47'918.2
2017-Dec-14 18:00N 33°27' E 131°53'918.3
2017-Dec-14 17:30N 33°19' E 131°58'612.2
2017-Dec-14 17:00N 33°13' E 131°58'1011.4
2017-Dec-14 16:07N 33°05' E 132°06'214.1
2017-Dec-14 16:00N 33°04' E 132°06'  
Track history (hours):
 
Tides and Currents Weather Stations Pressure Air Temp Water Temp Dewpoint Dewpoint Depression Visibility Wind Speed Wind Dir Waves Ship Positions

Swift Ace

Last reported at 2017-Dec-23 15:50 UTC. Time now 2018-Jan-20 10:46 UTC.
Position N 01°24' E 103°15'.
Warning: this ship's position is 27 days out of date.

Length 200 m; draft 8.5 m.

Type: Ship. MMSI: 311004900.

Date/timePositionNaut miles runAvg speedWind from/ knotsBaromVisibWave heightAir tempDewpointWater temp
2017-Dec-23 15:50N 01°24' E 103°15'618.3
2017-Dec-23 15:29N 01°19' E 103°20'918.4
2017-Dec-23 14:59N 01°14' E 103°27'816.2
2017-Dec-23 14:30N 01°12' E 103°35'5 8.8
2017-Dec-23 13:59N 01°12' E 103°40'3 6.6
2017-Dec-23 13:30N 01°14' E 103°42'4 7.9
2017-Dec-23 13:01N 01°17' E 103°45'1 1.0
2017-Dec-23 12:26N 01°17' E 103°45'0 0.0
2017-Dec-23 11:50N 01°17' E 103°45'0 0.0
2017-Dec-23 11:23N 01°17' E 103°45'0 0.0
2017-Dec-23 10:59N 01°17' E 103°45'0 0.0
2017-Dec-23 10:29N 01°17' E 103°45'0 0.0
2017-Dec-23 09:56N 01°17' E 103°45'0 0.0
2017-Dec-23 09:29N 01°17' E 103°45'0 0.0
2017-Dec-23 08:59N 01°17' E 103°45'0 0.0
2017-Dec-23 08:29N 01°17' E 103°45'0 0.0
2017-Dec-23 07:59N 01°17' E 103°45'0 0.0
2017-Dec-23 07:26N 01°17' E 103°45'0 0.0
2017-Dec-23 06:56N 01°17' E 103°45'0 0.0
2017-Dec-23 06:29N 01°17' E 103°45'0 0.0
2017-Dec-23 05:59N 01°17' E 103°45'0 0.0
2017-Dec-23 05:29N 01°17' E 103°45'0 0.0
2017-Dec-23 04:59N 01°17' E 103°45'0 0.0
2017-Dec-23 04:29N 01°17' E 103°45'0 0.0
2017-Dec-23 03:59N 01°17' E 103°45'0 0.0
2017-Dec-23 03:29N 01°17' E 103°45'0 0.0
2017-Dec-23 02:59N 01°17' E 103°45'0 0.0
2017-Dec-23 02:29N 01°17' E 103°45'0 0.0
2017-Dec-23 02:01N 01°17' E 103°45'1 1.4
2017-Dec-23 01:30N 01°17' E 103°45'3 6.9
2017-Dec-23 01:01N 01°14' E 103°47'510.0
2017-Dec-23 00:30N 01°13' E 103°52'2 3.1
2017-Dec-22 23:49N 01°15' E 103°53'0 0.0
2017-Dec-22 23:19N 01°15' E 103°53'0 0.0
2017-Dec-22 22:19N 01°15' E 103°53'0 0.0
2017-Dec-22 21:46N 01°15' E 103°53'0 0.0
2017-Dec-22 20:28N 01°15' E 103°53'0 0.0
2017-Dec-22 19:49N 01°15' E 103°53'0 0.0
2017-Dec-22 18:55N 01°15' E 103°53'0 0.0
2017-Dec-22 18:28N 01°15' E 103°53'0 0.0
2017-Dec-22 17:58N 01°15' E 103°53'0 0.0
2017-Dec-22 17:22N 01°15' E 103°53'0 0.0
2017-Dec-22 16:55N 01°15' E 103°53'0 0.0
2017-Dec-22 16:28N 01°15' E 103°53'0 0.0
2017-Dec-22 15:49N 01°15' E 103°53'0 0.0
2017-Dec-22 15:28N 01°15' E 103°53'0 0.0
2017-Dec-22 14:49N 01°15' E 103°53'0 0.0
2017-Dec-22 14:28N 01°15' E 103°53'0 0.0
2017-Dec-22 13:43N 01°15' E 103°53'0 0.1
2017-Dec-22 13:28N 01°15' E 103°53'0 0.2
2017-Dec-22 12:58N 01°15' E 103°53'0 0.0
2017-Dec-22 12:19N 01°15' E 103°53'0 0.0
2017-Dec-22 11:52N 01°15' E 103°53'0 0.0
2017-Dec-22 11:25N 01°15' E 103°53'0 0.1
2017-Dec-22 10:55N 01°15' E 103°53'0 1.1
2017-Dec-22 10:30N 01°15' E 103°54'2 3.7
2017-Dec-22 09:59N 01°14' E 103°55'3 5.4
2017-Dec-22 09:29N 01°15' E 103°58'612.1
2017-Dec-22 08:58N 01°16' E 104°04'  
2017-Dec-15 14:28N 32°59' E 132°09'715.7
2017-Dec-15 14:00N 33°06' E 132°06'815.5
2017-Dec-15 13:31N 33°13' E 132°02'612.0
2017-Dec-15 13:00N 33°18' E 131°59'816.2
2017-Dec-15 12:30N 33°25' E 131°55'918.1
2017-Dec-15 12:00N 33°33' E 131°50'917.9
2017-Dec-15 11:30N 33°41' E 131°45'816.0
2017-Dec-15 11:00N 33°46' E 131°37'917.3
2017-Dec-15 10:30N 33°48' E 131°27'817.0
2017-Dec-15 10:00N 33°49' E 131°17'815.5
2017-Dec-15 09:30N 33°50' E 131°08'510.8
2017-Dec-15 09:00N 33°48' E 131°01'2 3.3
2017-Dec-15 08:29N 33°47' E 131°00'0 0.0
2017-Dec-15 07:56N 33°47' E 131°00'0 0.0
2017-Dec-15 07:26N 33°47' E 131°00'0 0.0
2017-Dec-15 06:59N 33°47' E 131°00'0 0.0
2017-Dec-15 06:26N 33°47' E 131°00'0 0.0
2017-Dec-15 05:56N 33°47' E 131°00'0 0.0
2017-Dec-15 05:26N 33°47' E 131°00'0 0.0
2017-Dec-15 04:56N 33°47' E 131°00'0 0.0
2017-Dec-15 04:26N 33°47' E 131°00'0 0.0
2017-Dec-15 03:56N 33°47' E 131°00'0 0.0
2017-Dec-15 02:26N 33°47' E 131°00'0 0.0
2017-Dec-15 00:56N 33°47' E 131°00'0 0.0
2017-Dec-15 00:26N 33°47' E 131°00'40 6.8
2017-Dec-14 18:30N 33°35' E 131°47'918.2
2017-Dec-14 18:00N 33°27' E 131°53'918.3
2017-Dec-14 17:30N 33°19' E 131°58'612.2
2017-Dec-14 17:00N 33°13' E 131°58'1011.4
2017-Dec-14 16:07N 33°05' E 132°06'214.1
2017-Dec-14 16:00N 33°04' E 132°06'  

Dump ship's entire track history